ADDS METAR Data INFO
IDs: Format: Raw Decoded Include TAF

Data at: 1043 UTC 18 Aug 2017

KCNW 172250Z 20008KT 10SM CLR 34/20 A2991
KCNW 172150Z 20008KT 10SM SCT060 37/21 A2992
KCNW 171950Z VRB03KT 10SM SKC 33/24 A2998
KCNW 171855Z VRB03KT 10SM SKC 32/24 A3002
KCNW 171755Z 24004KT 10SM SKC 32/23 A3003
KCNW 171655Z 27006KT 10SM SCT095 31/23 A3004
KCNW 171555Z 21006G18KT 10SM SCT031 31/23 A3003
KCNW 171455Z 21012G20KT 10SM SCT040 29/23 A3003
KCNW 171350Z 19007KT 10SM SKC 27/24 A3002
KCNW 171255Z 19007KT 10SM BKN023 27/24 A3000
KCNW 171155Z 18006KT 10SM SKC 27/24 A2999
KCNW 170355Z 16006G16KT 10SM CLR 31/22 A2991
KCNW 170255Z 16006G16KT 10SM CLR 32/22 A2989
KCNW 170155Z 20006KT 10SM CLR 34/19 A2989
KCNW 170055Z 20006KT 10SM CLR 34/19 A2987
KCNW 162355Z 20016KT 10SM CLR 35/19 A2986
KCNW 162255Z 20016G20KT 10SM CLR 35/19 A2987